CST,Max TemperatureF,Mean TemperatureF,Min TemperatureF,Max Dew PointF,MeanDew PointF,Min DewpointF,Max Humidity, Mean Humidity, Min Humidity, Max Sea Level PressureIn, Mean Sea Level PressureIn, Min Sea Level PressureIn, Max VisibilityMiles, Mean VisibilityMiles, Min VisibilityMiles, Max Wind SpeedMPH, Mean Wind SpeedMPH, Max Gust SpeedMPH,PrecipitationIn, CloudCover, Events, WindDirDegrees
2012-11-1,39,32,24,28,25,23,100,81,56,30.16,30.08,29.99,10,10,10,15,8,22,0.00,5,,86
2012-11-2,32,29,26,30,26,23,93,87,80,30.11,30.06,30.04,10,5,0,13,7,18,1.27,7,Snow,139
2012-11-3,32,31,30,32,28,25,100,87,75,30.24,30.19,30.11,10,8,2,12,5,16,0.01,8,Rain-Snow,355
2012-11-4,35,32,28,34,29,25,100,92,80,30.23,30.14,30.07,10,7,1,12,7,,0.01,8,Rain,160
2012-11-5,48,40,32,41,35,32,100,87,70,30.22,30.00,29.76,10,9,3,29,8,37,0.00,7,Rain,241
2012-11-6,50,38,26,30,28,23,93,66,43,30.10,30.06,29.94,10,10,10,21,14,30,0.00,1,,289
2012-11-7,57,40,23,32,28,19,93,62,33,30.08,29.83,29.67,10,10,10,32,9,44,0.00,1,,187
2012-11-8,46,37,28,39,30,25,87,77,66,30.15,30.03,29.78,10,10,10,20,11,28,0.00,7,Rain,18
2012-11-9,28,26,23,25,24,21,100,90,86,30.15,30.01,29.85,10,6,2,23,15,30,0.00,6,,78
2012-11-10,26,20,14,25,19,9,100,88,73,29.86,29.79,29.74,10,6,1,20,13,25,1.26,2,Rain-Snow,346
2012-11-11,15,10,6,12,7,1,86,78,73,29.99,29.88,29.81,10,7,1,26,18,36,2.84,4,Snow,277
2012-11-12,24,14,3,18,6,-4,86,76,67,30.15,30.10,30.00,10,10,10,20,12,25,0.00,2,Snow,248
2012-11-13,35,25,15,27,20,10,100,85,70,30.16,30.14,30.11,10,9,2,8,2,,0.00,4,Rain,241
2012-11-14,44,29,14,32,24,12,93,81,53,30.13,30.06,29.99,10,10,5,13,3,16,0.00,1,,244
2012-11-15,39,28,17,27,23,16,93,76,52,30.41,30.32,30.13,10,10,3,18,8,25,0.00,0,,220
2012-11-16,44,36,28,32,26,21,100,77,61,30.26,30.06,29.97,10,10,10,22,11,32,0.00,0,,179
2012-11-17,44,34,23,34,28,23,100,87,61,30.05,30.01,29.97,10,10,6,7,1,,0.00,2,,65
2012-11-18,50,34,19,37,28,18,100,86,58,29.97,29.87,29.78,10,8,0,13,3,,0.00,0,Fog,158
2012-11-19,50,38,26,32,27,23,93,71,37,30.12,30.07,29.94,10,10,10,14,7,,0.00,1,,210
2012-11-20,55,42,28,34,29,25,93,66,41,30.04,29.91,29.85,10,10,9,16,7,20,0.00,0,,206
2012-11-21,55,40,26,36,31,25,100,80,41,29.86,29.71,29.57,10,10,8,18,2,22,0.00,1,,221
2012-11-22,35,25,15,32,20,9,93,78,68,30.46,30.08,29.75,10,9,2,26,16,36,0.69,6,Rain-Snow,314
2012-11-23,23,16,10,14,10,7,85,75,63,30.52,30.42,30.15,10,8,3,18,10,23,0.26,5,Snow,262
2012-11-24,46,34,23,32,21,14,86,71,56,30.13,29.91,29.76,10,10,10,22,9,29,0.00,4,,253
2012-11-25,28,16,5,23,12,0,93,76,59,30.32,30.10,29.97,10,10,9,21,10,23,0.00,4,Snow,312
2012-11-26,35,18,1,19,9,-2,93,74,48,30.36,30.26,30.12,10,10,8,18,6,23,0.00,3,Snow,238
2012-11-27,32,22,12,25,18,9,93,86,75,30.22,30.14,30.08,10,9,3,8,3,,0.00,5,,253
2012-11-28,35,24,12,27,19,9,100,84,60,30.22,30.08,29.99,10,7,0,12,3,16,0.00,3,Fog,68
2012-11-29,23,18,14,19,11,5,93,76,58,30.09,30.06,30.00,10,9,2,14,10,21,0.00,6,,102
2012-11-30,32,26,19,25,21,16,93,83,69,30.07,29.87,29.65,10,9,5,13,8,17,0.00,4,,158